Time;durP1;ratioP1;P1;durP2;ratioP2;P2;SDS_P1;SDS_P2;PMS_P1;PMS_P2;Temp;Humidity;BMP_temperature;BMP_pressure;BME280_temperature;BME280_humidity;BME280_pressure;Samples;Min_cycle;Max_cycle;Signal;HPM_P1;HPM_P2
2021/03/30 00:01:42;;;;;;;18.40;7.90;;;7.80;99.90;;;;;;5096819;28;20025;-69
2021/03/30 00:04:07;;;;;;;15.25;7.90;;;7.80;99.90;;;;;;5096835;28;20020;-67
2021/03/30 00:06:33;;;;;;;15.63;7.97;;;7.70;99.90;;;;;;5094968;28;20115;-69
2021/03/30 00:08:58;;;;;;;15.82;7.95;;;7.60;99.90;;;;;;5096735;28;20024;-66
2021/03/30 00:11:24;;;;;;;16.35;8.73;;;7.70;99.90;;;;;;5078224;28;20028;-67
2021/03/30 00:13:50;;;;;;;14.88;8.07;;;7.60;99.90;;;;;;5096636;28;20059;-67
2021/03/30 00:16:15;;;;;;;16.55;8.00;;;7.60;99.90;;;;;;5096314;28;20020;-67
2021/03/30 00:18:41;;;;;;;13.60;7.97;;;7.60;99.90;;;;;;5096277;28;20040;-69
2021/03/30 00:21:07;;;;;;;13.85;7.85;;;7.60;99.90;;;;;;5096189;28;20032;-68
2021/03/30 00:23:32;;;;;;;14.45;8.55;;;7.50;99.90;;;;;;5094961;28;20069;-67
2021/03/30 00:25:58;;;;;;;16.45;8.27;;;7.50;99.90;;;;;;5096373;28;20027;-68
2021/03/30 00:28:23;;;;;;;17.45;8.55;;;7.50;99.90;;;;;;5095380;28;20024;-68
2021/03/30 00:30:50;;;;;;;18.35;8.80;;;7.50;99.90;;;;;;5096312;28;20027;-68
2021/03/30 00:33:16;;;;;;;19.23;10.50;;;7.40;99.90;;;;;;5096262;28;20514;-68
2021/03/30 00:35:41;;;;;;;18.27;10.20;;;7.30;99.90;;;;;;5096220;28;20032;-68
2021/03/30 00:38:09;;;;;;;20.48;9.15;;;7.20;99.90;;;;;;5095631;28;20020;-69
2021/03/30 00:40:36;;;;;;;18.40;10.15;;;7.20;99.90;;;;;;5096111;28;20030;-68
2021/03/30 00:43:02;;;;;;;16.92;9.52;;;7.10;99.90;;;;;;5095532;28;20048;-68
2021/03/30 00:45:28;;;;;;;18.83;9.68;;;7.10;99.90;;;;;;5094922;28;20027;-68
2021/03/30 00:47:54;;;;;;;19.42;8.88;;;7.00;99.90;;;;;;5095749;28;20480;-68
2021/03/30 00:50:22;;;;;;;17.38;9.18;;;7.00;99.90;;;;;;5095957;28;20365;-68
2021/03/30 00:52:48;;;;;;;16.30;8.85;;;7.00;99.90;;;;;;5095637;28;20114;-68
2021/03/30 00:55:15;;;;;;;23.73;10.20;;;7.00;99.90;;;;;;5095853;28;20103;-69
2021/03/30 00:57:41;;;;;;;19.25;9.80;;;7.00;99.90;;;;;;5095823;28;20235;-68
2021/03/30 01:00:09;;;;;;;15.77;9.02;;;6.90;99.90;;;;;;5095729;28;20060;-68
2021/03/30 01:02:36;;;;;;;20.25;9.20;;;6.80;99.90;;;;;;5095679;28;20058;-68
2021/03/30 01:05:02;;;;;;;16.08;9.80;;;6.70;99.90;;;;;;5094941;28;20085;-68
2021/03/30 01:07:28;;;;;;;13.18;9.07;;;6.70;99.90;;;;;;5093702;28;20023;-69
2021/03/30 01:10:19;;;;;;;19.25;9.80;;;6.60;99.90;;;;;;5095580;28;20024;-68
2021/03/30 01:13:25;;;;;;;21.05;10.85;;;6.60;99.90;;;;;;5094804;28;20144;-68
2021/03/30 01:16:10;;;;;;;19.92;10.13;;;6.60;99.90;;;;;;5095044;28;20081;-68
2021/03/30 01:19:04;;;;;;;17.92;9.73;;;6.60;99.90;;;;;;5095411;28;20033;-66
2021/03/30 01:22:09;;;;;;;18.02;10.27;;;6.50;99.90;;;;;;5095095;28;20016;-66
2021/03/30 01:24:38;;;;;;;18.98;10.20;;;6.40;99.90;;;;;;5094993;28;20063;-68
2021/03/30 01:27:09;;;;;;;19.30;9.95;;;6.30;99.90;;;;;;5093779;28;20107;-68
2021/03/30 01:29:52;;;;;;;17.92;9.80;;;6.30;99.90;;;;;;5094152;28;20028;-68
2021/03/30 01:32:39;;;;;;;22.83;10.52;;;6.20;99.90;;;;;;5094036;28;20453;-68
2021/03/30 01:35:11;;;;;;;17.48;10.05;;;6.20;99.90;;;;;;5127307;27;20036;-69
2021/03/30 01:37:44;;;;;;;22.52;10.73;;;6.20;99.90;;;;;;5095047;28;20052;-67
2021/03/30 01:40:12;;;;;;;23.35;10.85;;;6.10;99.90;;;;;;5093889;28;20377;-66
2021/03/30 01:42:39;;;;;;;17.27;11.25;;;6.10;99.90;;;;;;5094129;28;20134;-69
2021/03/30 01:45:06;;;;;;;18.80;10.15;;;6.10;99.90;;;;;;5094604;28;20491;-69
2021/03/30 01:47:37;;;;;;;15.82;9.93;;;6.00;99.90;;;;;;5093641;28;20024;-68
2021/03/30 01:50:05;;;;;;;18.70;10.52;;;6.00;99.90;;;;;;5095075;28;20069;-66
2021/03/30 01:52:33;;;;;;;19.00;11.05;;;5.90;99.90;;;;;;5094701;28;20036;-68
2021/03/30 01:54:59;;;;;;;17.30;10.80;;;5.90;99.90;;;;;;5094709;28;20028;-68
2021/03/30 01:57:29;;;;;;;21.58;10.68;;;5.80;99.90;;;;;;5093126;28;20049;-68
2021/03/30 01:59:55;;;;;;;21.02;10.95;;;5.80;99.90;;;;;;5093158;28;20107;-68
2021/03/30 02:02:21;;;;;;;21.00;11.23;;;5.70;99.90;;;;;;5110065;28;20107;-68
2021/03/30 02:04:49;;;;;;;22.75;10.75;;;5.70;99.90;;;;;;5094604;28;20016;-68
2021/03/30 02:07:16;;;;;;;24.55;11.52;;;5.70;99.90;;;;;;5094557;28;20024;-68
2021/03/30 02:09:47;;;;;;;22.08;11.27;;;5.70;99.90;;;;;;5094556;28;20013;-68
2021/03/30 02:12:14;;;;;;;19.80;11.45;;;5.70;99.90;;;;;;5094491;28;20024;-68
2021/03/30 02:14:41;;;;;;;19.10;11.52;;;5.70;99.90;;;;;;5094490;28;20076;-68
2021/03/30 02:17:29;;;;;;;21.20;11.68;;;5.60;99.90;;;;;;5094202;28;20107;-68
2021/03/30 02:20:16;;;;;;;19.50;10.90;;;5.60;99.90;;;;;;5094638;28;20445;-68
2021/03/30 02:22:56;;;;;;;22.98;10.93;;;5.60;99.90;;;;;;5094294;28;20027;-68
2021/03/30 02:25:23;;;;;;;22.05;10.93;;;5.60;99.90;;;;;;5094050;28;20061;-68
2021/03/30 02:27:52;;;;;;;16.02;9.52;;;5.60;99.90;;;;;;5093718;28;20031;-68
2021/03/30 02:30:21;;;;;;;18.55;9.98;;;5.50;99.90;;;;;;5094279;28;20020;-68
2021/03/30 02:32:48;;;;;;;16.45;9.98;;;5.50;99.90;;;;;;5093680;28;20055;-68
2021/03/30 02:35:16;;;;;;;22.20;9.25;;;5.50;99.90;;;;;;5094229;28;20537;-68
2021/03/30 02:37:43;;;;;;;16.88;10.00;;;5.60;99.90;;;;;;5094214;28;20443;-68
2021/03/30 02:40:12;;;;;;;17.90;9.60;;;5.50;99.90;;;;;;5094192;28;20090;-68
2021/03/30 02:42:40;;;;;;;18.70;9.45;;;5.50;99.90;;;;;;5092093;28;20071;-68
2021/03/30 02:45:08;;;;;;;17.48;11.00;;;5.50;99.90;;;;;;5092665;28;20016;-68
2021/03/30 02:47:36;;;;;;;18.52;9.13;;;5.40;99.90;;;;;;5094084;28;20481;-68
2021/03/30 02:50:02;;;;;;;20.77;10.18;;;5.40;99.90;;;;;;5094328;28;20036;-68
2021/03/30 02:52:29;;;;;;;17.98;9.65;;;5.40;99.90;;;;;;5094043;28;20016;-68
2021/03/30 02:54:56;;;;;;;18.95;10.35;;;5.30;99.90;;;;;;5094023;28;20020;-68
2021/03/30 02:57:23;;;;;;;17.63;10.10;;;5.40;99.90;;;;;;5093987;28;20457;-68
2021/03/30 02:59:49;;;;;;;19.40;11.27;;;5.30;99.90;;;;;;5093729;28;20047;-68
2021/03/30 03:02:15;;;;;;;19.20;10.18;;;5.30;99.90;;;;;;5093858;28;20038;-68
2021/03/30 03:04:44;;;;;;;20.83;11.35;;;5.20;99.90;;;;;;5093618;28;20028;-68
2021/03/30 03:07:11;;;;;;;18.88;9.75;;;5.20;99.90;;;;;;5093834;28;20012;-68
2021/03/30 03:09:37;;;;;;;19.27;11.10;;;5.20;99.90;;;;;;5094123;28;20377;-68
2021/03/30 03:12:05;;;;;;;17.67;10.38;;;5.20;99.90;;;;;;5093873;28;20024;-68
2021/03/30 03:14:33;;;;;;;22.10;11.80;;;5.20;99.90;;;;;;5093598;28;20385;-68
2021/03/30 03:17:00;;;;;;;19.40;11.02;;;5.20;99.90;;;;;;5093816;28;20440;-68
2021/03/30 03:19:27;;;;;;;24.88;12.45;;;5.20;99.90;;;;;;5093793;28;20026;-68
2021/03/30 03:21:53;;;;;;;32.17;13.20;;;5.20;99.90;;;;;;5093973;28;20028;-68
2021/03/30 03:24:19;;;;;;;28.08;13.27;;;5.10;99.90;;;;;;5091934;28;20027;-68
2021/03/30 03:26:45;;;;;;;30.48;14.38;;;5.00;99.90;;;;;;5093388;28;20023;-68
2021/03/30 03:29:17;;;;;;;34.78;14.00;;;4.90;99.90;;;;;;5093429;28;20028;-68
2021/03/30 03:31:44;;;;;;;27.25;13.95;;;4.90;99.90;;;;;;5097213;28;20514;-68
2021/03/30 03:34:11;;;;;;;23.30;12.25;;;4.80;99.90;;;;;;5097526;28;20412;-68
2021/03/30 03:36:42;;;;;;;28.45;12.20;;;4.90;99.90;;;;;;5097439;28;20013;-68
2021/03/30 03:39:11;;;;;;;21.85;11.90;;;4.80;99.90;;;;;;5097430;28;20109;-68
2021/03/30 03:41:38;;;;;;;23.02;12.20;;;4.80;99.90;;;;;;5097207;28;20016;-68
2021/03/30 03:44:05;;;;;;;20.70;11.82;;;4.80;99.90;;;;;;5096970;28;20032;-68
2021/03/30 03:46:31;;;;;;;22.35;11.65;;;4.80;99.90;;;;;;5095799;28;20384;-68
2021/03/30 03:48:58;;;;;;;19.08;12.13;;;4.70;99.90;;;;;;5097217;28;20016;-68
2021/03/30 03:51:25;;;;;;;21.20;11.38;;;4.70;99.90;;;;;;5097177;28;20023;-68
2021/03/30 03:53:53;;;;;;;22.33;11.02;;;4.70;99.90;;;;;;5097124;28;20154;-68
2021/03/30 03:56:27;;;;;;;20.80;12.02;;;4.70;99.90;;;;;;5095743;28;20046;-68
2021/03/30 03:58:59;;;;;;;22.52;11.35;;;4.60;99.90;;;;;;5097012;28;20077;-68
2021/03/30 04:01:35;;;;;;;23.27;10.98;;;4.60;99.90;;;;;;5096464;28;20038;-68
2021/03/30 04:04:04;;;;;;;23.02;11.65;;;4.60;99.90;;;;;;5096603;28;20020;-68
2021/03/30 04:06:35;;;;;;;24.88;11.55;;;4.50;99.90;;;;;;5096598;28;20020;-68
2021/03/30 04:09:03;;;;;;;23.85;11.95;;;4.50;99.90;;;;;;5096519;28;20093;-68
2021/03/30 04:11:30;;;;;;;25.27;11.90;;;4.50;99.90;;;;;;5095671;28;20521;-68
2021/03/30 04:13:59;;;;;;;19.60;11.90;;;4.50;99.90;;;;;;5096483;28;20397;-68
2021/03/30 04:16:25;;;;;;;25.55;11.73;;;4.40;99.90;;;;;;5096415;28;20016;-68
2021/03/30 04:18:50;;;;;;;23.15;12.02;;;4.40;99.90;;;;;;5096617;28;20020;-68
2021/03/30 04:21:30;;;;;;;23.38;11.88;;;4.40;99.90;;;;;;5096588;28;20506;-68
2021/03/30 04:23:57;;;;;;;24.25;11.93;;;4.40;99.90;;;;;;5096467;28;20376;-68
2021/03/30 04:26:24;;;;;;;29.40;12.77;;;4.30;99.90;;;;;;5096544;28;20020;-68
2021/03/30 04:28:50;;;;;;;24.35;12.70;;;4.30;99.90;;;;;;5096452;28;20380;-68
2021/03/30 04:31:16;;;;;;;21.95;11.43;;;4.30;99.90;;;;;;5096070;28;20034;-68
2021/03/30 04:33:41;;;;;;;26.55;12.07;;;4.30;99.90;;;;;;5094419;28;20476;-68
2021/03/30 04:36:08;;;;;;;24.58;12.95;;;4.20;99.90;;;;;;5096323;28;20038;-67
2021/03/30 04:38:33;;;;;;;23.85;12.63;;;4.20;99.90;;;;;;5096010;28;20476;-68
2021/03/30 04:40:59;;;;;;;23.40;11.82;;;4.20;99.90;;;;;;5095870;28;20042;-68
2021/03/30 04:43:24;;;;;;;18.40;11.50;;;4.20;99.90;;;;;;5095712;28;20093;-68
2021/03/30 04:45:51;;;;;;;22.65;12.50;;;4.20;99.90;;;;;;5096435;28;20028;-68
2021/03/30 04:48:16;;;;;;;23.77;12.10;;;4.10;99.90;;;;;;5094879;28;20376;-68
2021/03/30 04:50:43;;;;;;;25.15;12.68;;;4.10;99.90;;;;;;5096003;28;20098;-68
2021/03/30 04:53:09;;;;;;;27.92;12.80;;;4.10;99.90;;;;;;5095671;28;20031;-68
2021/03/30 04:55:35;;;;;;;23.08;12.32;;;4.00;99.90;;;;;;5095617;28;20381;-68
2021/03/30 04:58:00;;;;;;;23.90;12.85;;;4.00;99.90;;;;;;5095934;28;20024;-68
2021/03/30 05:00:26;;;;;;;23.15;11.95;;;4.00;99.90;;;;;;5095360;28;20063;-68
2021/03/30 05:02:51;;;;;;;24.02;12.95;;;4.00;99.90;;;;;;5094358;28;20035;-68
2021/03/30 05:05:17;;;;;;;25.33;13.02;;;4.00;99.90;;;;;;5095954;28;20020;-68
2021/03/30 05:07:43;;;;;;;24.20;12.77;;;4.00;99.90;;;;;;5095587;28;20461;-68
2021/03/30 05:10:09;;;;;;;25.13;13.63;;;4.00;99.90;;;;;;5095774;28;20453;-68
2021/03/30 05:12:34;;;;;;;28.27;12.63;;;4.00;99.90;;;;;;5095650;28;20103;-68
2021/03/30 05:15:00;;;;;;;29.30;13.60;;;4.00;99.90;;;;;;5094357;28;20621;-68
2021/03/30 05:17:26;;;;;;;29.92;13.13;;;4.10;99.90;;;;;;5095517;28;20032;-68
2021/03/30 05:19:52;;;;;;;28.20;13.15;;;4.10;99.90;;;;;;5095172;28;20354;-68
2021/03/30 05:22:17;;;;;;;29.73;13.95;;;4.20;99.90;;;;;;5095355;28;20078;-68
2021/03/30 05:24:43;;;;;;;24.15;13.52;;;4.30;99.90;;;;;;5095380;28;20098;-68
2021/03/30 05:27:08;;;;;;;26.17;13.32;;;4.40;99.90;;;;;;5094419;28;20058;-68
2021/03/30 05:29:42;;;;;;;24.33;13.00;;;4.60;99.90;;;;;;5094993;28;20361;-68
2021/03/30 05:32:09;;;;;;;22.50;12.95;;;4.80;99.90;;;;;;5095245;28;20024;-68
2021/03/30 05:34:35;;;;;;;26.10;13.10;;;4.90;99.90;;;;;;5094888;28;20024;-68
2021/03/30 05:37:01;;;;;;;22.30;12.70;;;5.10;99.90;;;;;;5095156;28;20051;-67
2021/03/30 05:39:26;;;;;;;23.50;12.73;;;5.20;99.90;;;;;;5094987;28;20354;-67
2021/03/30 05:41:52;;;;;;;24.52;12.90;;;5.40;99.90;;;;;;5094454;28;20040;-68
2021/03/30 05:44:17;;;;;;;20.42;12.27;;;5.60;99.90;;;;;;5093235;28;20388;-68
2021/03/30 05:46:45;;;;;;;23.60;12.50;;;6.00;99.90;;;;;;5076569;28;20031;-68
2021/03/30 05:49:12;;;;;;;28.05;17.05;;;6.60;99.90;;;;;;5094859;28;20043;-68
2021/03/30 05:51:40;;;;;;;23.48;15.10;;;7.30;99.90;;;;;;5094365;28;20024;-68
2021/03/30 05:54:07;;;;;;;21.35;13.02;;;8.10;99.90;;;;;;5093371;28;20103;-69
2021/03/30 05:56:36;;;;;;;29.13;12.45;;;8.70;99.90;;;;;;5094757;28;20020;-68
2021/03/30 05:59:05;;;;;;;22.92;12.02;;;9.20;99.90;;;;;;5094183;28;20035;-68
2021/03/30 06:01:31;;;;;;;23.23;11.65;;;9.70;99.90;;;;;;5094679;28;20112;-69
2021/03/30 06:04:01;;;;;;;20.35;10.88;;;10.50;99.90;;;;;;5094622;28;20445;-68
2021/03/30 06:06:27;;;;;;;16.92;9.48;;;10.50;99.90;;;;;;5093886;28;20407;-69
2021/03/30 06:08:53;;;;;;;21.50;11.18;;;10.50;99.90;;;;;;5092974;28;20039;-68
2021/03/30 06:11:18;;;;;;;20.90;10.73;;;10.70;99.90;;;;;;5095497;28;20037;-68
2021/03/30 06:13:59;;;;;;;18.83;11.43;;;11.10;99.90;;;;;;5091925;28;20500;-67
2021/03/30 06:19:12;;;;;;;16.92;9.68;;;11.30;99.90;;;;;;5111912;27;20343;-67
2021/03/30 06:21:40;;;;;;;18.08;10.63;;;11.80;99.90;;;;;;5122094;28;20085;-67
2021/03/30 06:24:27;;;;;;;23.13;10.93;;;12.20;99.90;;;;;;5128863;27;20499;-67
2021/03/30 06:26:57;;;;;;;17.38;10.27;;;12.30;99.90;;;;;;5110587;28;20427;-67
2021/03/30 06:29:25;;;;;;;18.98;10.82;;;13.00;99.90;;;;;;5110881;28;20020;-67
2021/03/30 06:31:52;;;;;;;18.50;10.70;;;13.90;99.90;;;;;;5110880;28;20066;-68
2021/03/30 06:34:26;;;;;;;21.70;10.80;;;14.60;99.90;;;;;;5110267;28;20391;-68
2021/03/30 06:36:52;;;;;;;19.88;11.18;;;15.40;99.90;;;;;;5111462;28;20418;-68
2021/03/30 06:39:17;;;;;;;20.77;11.68;;;15.50;99.90;;;;;;5105407;28;20058;-68
2021/03/30 06:41:50;;;;;;;16.13;10.45;;;15.90;98.50;;;;;;5108080;28;20016;-68
2021/03/30 06:47:03;;;;;;;22.75;11.70;;;16.80;93.00;;;;;;5111237;27;20359;-67
2021/03/30 06:49:31;;;;;;;20.85;11.95;;;17.10;92.20;;;;;;5109636;28;20028;-67
2021/03/30 06:51:58;;;;;;;21.65;13.13;;;18.00;83.70;;;;;;5110787;28;20019;-67
2021/03/30 06:54:24;;;;;;;22.95;11.82;;;18.00;80.00;;;;;;5110069;28;20028;-67
2021/03/30 06:56:58;;;;;;;21.10;12.18;;;18.10;79.30;;;;;;5110751;28;20350;-67
2021/03/30 06:59:25;;;;;;;20.70;12.30;;;18.30;76.00;;;;;;5109901;28;20510;-67
2021/03/30 07:01:54;;;;;;;18.85;12.27;;;18.30;73.60;;;;;;5106747;28;20032;-67
2021/03/30 07:04:20;;;;;;;20.20;12.07;;;18.60;69.30;;;;;;5110080;28;20411;-68
2021/03/30 07:06:54;;;;;;;19.40;12.57;;;18.60;68.60;;;;;;5106323;28;20031;-67
2021/03/30 07:09:21;;;;;;;18.92;12.32;;;18.30;70.00;;;;;;5106390;28;20269;-68
2021/03/30 07:11:47;;;;;;;25.75;13.00;;;17.70;73.00;;;;;;5109971;28;20073;-68
2021/03/30 07:14:13;;;;;;;18.73;12.63;;;18.00;73.70;;;;;;5107566;28;20019;-68
2021/03/30 07:16:54;;;;;;;24.67;13.55;;;18.60;70.50;;;;;;5125276;28;20095;-68
2021/03/30 07:19:23;;;;;;;24.80;13.77;;;19.20;65.60;;;;;;5112571;27;20469;-68
2021/03/30 07:22:01;;;;;;;28.48;14.75;;;19.60;61.60;;;;;;5112437;28;20365;-68
2021/03/30 07:24:36;;;;;;;25.33;14.73;;;18.50;69.10;;;;;;5107393;28;20027;-68
2021/03/30 07:27:05;;;;;;;27.40;15.15;;;19.30;65.00;;;;;;5100230;28;20024;-68
2021/03/30 07:29:36;;;;;;;27.08;14.32;;;19.30;64.10;;;;;;5109185;28;20397;-68
2021/03/30 07:32:13;;;;;;;31.55;15.25;;;19.10;66.30;;;;;;5110730;28;20045;-68
2021/03/30 07:35:05;;;;;;;26.58;14.68;;;19.10;69.60;;;;;;5110249;28;20094;-68
2021/03/30 07:38:10;;;;;;;24.15;15.32;;;19.20;70.30;;;;;;5111613;28;20046;-68
2021/03/30 07:40:39;;;;;;;23.35;14.38;;;19.30;65.00;;;;;;5109850;28;20117;-68
2021/03/30 07:43:08;;;;;;;23.65;15.20;;;19.30;67.80;;;;;;5109927;28;20084;-68
2021/03/30 07:45:38;;;;;;;26.15;15.85;;;19.30;67.80;;;;;;5109090;28;20032;-68
2021/03/30 07:48:04;;;;;;;26.98;15.95;;;19.60;67.00;;;;;;5116150;28;20400;-69
2021/03/30 07:50:49;;;;;;;31.77;14.98;;;20.00;65.80;;;;;;5113368;27;20023;-68
2021/03/30 07:53:53;;;;;;;42.13;21.92;;;20.60;64.40;;;;;;5107735;28;20378;-68
2021/03/30 07:58:59;;;;;;;27.42;16.85;;;20.70;62.60;;;;;;5110447;27;20360;-68
2021/03/30 08:01:29;;;;;;;35.92;17.35;;;21.10;59.50;;;;;;5105576;28;20439;-68
2021/03/30 08:03:55;;;;;;;30.77;18.70;;;20.90;58.70;;;;;;5086769;28;20020;-68
2021/03/30 08:06:32;;;;;;;38.28;20.58;;;21.10;57.10;;;;;;5110319;28;20095;-68
2021/03/30 08:16:59;;;;;;;38.40;22.75;;;21.70;54.10;;;;;;5109914;27;20455;-68
2021/03/30 08:19:26;;;;;;;40.40;22.77;;;22.50;50.00;;;;;;5096560;28;20020;-68
2021/03/30 08:22:11;;;;;;;43.70;23.10;;;22.50;48.90;;;;;;5070444;28;20071;-68
2021/03/30 08:24:55;;;;;;;45.55;22.75;;;22.40;49.70;;;;;;5091211;28;20044;-69
2021/03/30 08:27:38;;;;;;;40.40;21.98;;;22.80;48.80;;;;;;5090332;28;20017;-69
2021/03/30 08:30:31;;;;;;;42.45;23.58;;;23.30;48.60;;;;;;5091102;28;20028;-68
2021/03/30 08:32:59;;;;;;;43.17;23.23;;;22.90;48.10;;;;;;5090437;28;20025;-68
2021/03/30 08:38:05;;;;;;;48.15;25.48;;;22.70;47.60;;;;;;5111004;27;20356;-68
2021/03/30 08:40:39;;;;;;;48.20;26.70;;;22.90;47.90;;;;;;5109232;28;20027;-68
2021/03/30 08:43:21;;;;;;;42.38;25.45;;;22.60;50.50;;;;;;5107662;28;20024;-68
2021/03/30 08:48:35;;;;;;;46.13;25.58;;;23.30;47.50;;;;;;5110434;27;20413;-69
2021/03/30 08:51:05;;;;;;;47.10;27.85;;;23.20;46.50;;;;;;5110746;28;20085;-69
2021/03/30 08:53:31;;;;;;;51.28;27.98;;;23.30;47.70;;;;;;5111191;28;20062;-69
2021/03/30 08:55:58;;;;;;;48.65;27.95;;;23.50;47.50;;;;;;5110621;28;20030;-68
2021/03/30 08:58:27;;;;;;;47.53;26.45;;;23.40;47.40;;;;;;5110508;28;20073;-69
2021/03/30 09:00:55;;;;;;;47.15;27.55;;;23.90;46.30;;;;;;5110843;28;20403;-69
2021/03/30 09:03:25;;;;;;;46.92;27.17;;;23.90;45.50;;;;;;5110814;28;20027;-69
2021/03/30 09:05:51;;;;;;;48.20;27.00;;;23.80;46.40;;;;;;5110589;28;20517;-69
2021/03/30 09:08:41;;;;;;;44.65;26.92;;;24.30;45.70;;;;;;5103633;28;20031;-69
2021/03/30 09:11:27;;;;;;;40.30;25.90;;;24.20;44.90;;;;;;5110498;28;20095;-69
2021/03/30 09:16:37;;;;;;;42.88;27.17;;;24.20;45.40;;;;;;5090086;28;21113;-69
2021/03/30 09:22:00;;;;;;;44.55;24.83;;;24.60;45.00;;;;;;5110128;27;20371;-70
2021/03/30 09:27:12;;;;;;;41.35;24.52;;;24.40;43.50;;;;;;5083908;28;20025;-69
2021/03/30 09:29:40;;;;;;;37.53;24.23;;;24.60;44.10;;;;;;5089266;28;20031;-70
2021/03/30 09:32:07;;;;;;;39.75;24.83;;;24.10;42.50;;;;;;5090316;28;20525;-70
2021/03/30 09:34:37;;;;;;;37.63;24.35;;;24.40;43.00;;;;;;5090277;28;20082;-70
2021/03/30 09:37:02;;;;;;;39.90;24.08;;;24.50;42.10;;;;;;5090147;28;20052;-69
2021/03/30 09:39:28;;;;;;;35.60;23.92;;;24.40;42.70;;;;;;5090252;28;20458;-70
2021/03/30 09:41:55;;;;;;;40.50;23.95;;;24.30;42.60;;;;;;5089967;28;20028;-70
2021/03/30 09:44:23;;;;;;;35.97;21.90;;;23.90;42.90;;;;;;5095600;28;20027;-70
2021/03/30 09:46:53;;;;;;;37.30;24.23;;;24.40;40.50;;;;;;5089881;28;20013;-69
2021/03/30 09:49:22;;;;;;;36.33;21.42;;;24.70;41.20;;;;;;5104493;28;20027;-69
2021/03/30 09:51:48;;;;;;;35.83;22.77;;;25.60;39.30;;;;;;5091451;28;20020;-69
2021/03/30 09:54:37;;;;;;;35.10;23.10;;;25.60;37.20;;;;;;5089364;28;20561;-69
2021/03/30 09:57:10;;;;;;;32.67;22.33;;;25.50;37.10;;;;;;5088101;28;20023;-70
2021/03/30 09:59:36;;;;;;;33.95;22.23;;;25.50;37.90;;;;;;5093739;28;20040;-70
2021/03/30 10:02:03;;;;;;;38.08;23.15;;;25.70;37.60;;;;;;5079426;28;20400;-70
2021/03/30 10:04:33;;;;;;;33.70;22.50;;;25.80;37.70;;;;;;5089590;28;20021;-70
2021/03/30 10:06:59;;;;;;;34.95;23.02;;;26.10;35.70;;;;;;5087580;28;20018;-70
2021/03/30 10:09:24;;;;;;;40.38;23.67;;;25.40;36.70;;;;;;5088100;28;20098;-70
2021/03/30 10:11:52;;;;;;;36.47;23.63;;;25.40;37.30;;;;;;5086784;28;20052;-70
2021/03/30 10:14:21;;;;;;;36.65;21.33;;;25.70;38.30;;;;;;5098138;28;20024;-70
2021/03/30 10:16:47;;;;;;;35.10;20.73;;;25.70;36.10;;;;;;5103062;28;20043;-70
2021/03/30 10:19:14;;;;;;;42.58;22.17;;;25.20;35.20;;;;;;5093070;28;20078;-70
2021/03/30 10:21:42;;;;;;;31.13;20.85;;;25.40;36.70;;;;;;5088659;28;20067;-70
2021/03/30 10:24:15;;;;;;;34.08;20.63;;;25.50;34.90;;;;;;5088988;28;20028;-70
2021/03/30 10:26:42;;;;;;;32.65;19.02;;;25.80;35.00;;;;;;5088370;28;20476;-70
2021/03/30 10:29:19;;;;;;;30.45;20.38;;;25.50;32.20;;;;;;5089085;28;20027;-70
2021/03/30 10:32:00;;;;;;;32.60;20.98;;;24.90;33.80;;;;;;5084463;28;20020;-70
2021/03/30 10:34:32;;;;;;;33.38;20.88;;;25.00;34.80;;;;;;5075090;28;20063;-70
2021/03/30 10:37:00;;;;;;;32.22;21.13;;;25.20;35.10;;;;;;5074282;28;20043;-70
2021/03/30 10:39:29;;;;;;;31.58;19.20;;;25.60;35.00;;;;;;5075796;28;20024;-70
2021/03/30 10:42:01;;;;;;;29.20;17.98;;;26.60;31.90;;;;;;5075076;28;20032;-70
2021/03/30 10:44:39;;;;;;;30.88;20.48;;;27.10;30.10;;;;;;5075198;28;20029;-70
2021/03/30 10:47:29;;;;;;;31.92;18.95;;;25.70;31.70;;;;;;5072920;28;20029;-70
2021/03/30 10:49:55;;;;;;;25.33;16.92;;;25.60;31.70;;;;;;5070396;28;20112;-70
2021/03/30 10:52:23;;;;;;;26.33;17.55;;;25.90;31.30;;;;;;5075812;28;20107;-70
2021/03/30 10:54:52;;;;;;;21.17;14.70;;;26.20;29.90;;;;;;5081925;28;20043;-70
2021/03/30 10:57:20;;;;;;;23.30;13.63;;;26.70;27.80;;;;;;5095782;28;20020;-70
2021/03/30 10:59:46;;;;;;;27.25;16.17;;;26.60;26.60;;;;;;5075129;28;20029;-70
2021/03/30 11:02:13;;;;;;;22.30;14.32;;;26.10;27.10;;;;;;5075274;28;20021;-70
2021/03/30 11:04:39;;;;;;;33.38;17.98;;;25.70;28.10;;;;;;5055834;28;20072;-69
2021/03/30 11:07:06;;;;;;;28.92;18.48;;;26.50;29.10;;;;;;5061776;28;20511;-70
2021/03/30 11:09:33;;;;;;;31.30;19.23;;;26.90;28.50;;;;;;5074048;28;20025;-69
2021/03/30 11:11:59;;;;;;;27.35;17.80;;;26.50;28.50;;;;;;5073729;28;20031;-70
2021/03/30 11:14:24;;;;;;;29.42;19.02;;;26.70;29.10;;;;;;5074120;28;20020;-69
2021/03/30 11:16:50;;;;;;;28.00;18.70;;;26.80;28.10;;;;;;5060308;28;20082;-69
2021/03/30 11:19:17;;;;;;;31.33;18.92;;;26.40;29.60;;;;;;5078893;28;20028;-69
2021/03/30 11:21:43;;;;;;;28.40;16.75;;;25.80;29.70;;;;;;5074237;28;20059;-69
2021/03/30 11:24:13;;;;;;;26.15;15.82;;;25.40;31.00;;;;;;5075005;28;20099;-69
2021/03/30 11:26:41;;;;;;;31.20;16.75;;;25.20;29.90;;;;;;5079921;28;20046;-69
2021/03/30 11:29:10;;;;;;;28.67;16.20;;;25.20;30.30;;;;;;5073244;28;20029;-69
2021/03/30 11:32:17;;;;;;;29.98;16.15;;;24.90;29.50;;;;;;5073063;28;20034;-69
2021/03/30 11:34:36;;;;;;;29.00;17.45;;;25.00;30.50;;;;;;5083632;28;20048;-69
2021/03/30 11:37:40;;;;;;;29.38;17.42;;;24.50;30.50;;;;;;5074567;28;20032;-69
2021/03/30 11:39:48;;;;;;;32.50;18.35;;;24.60;29.80;;;;;;5073342;28;20060;-69
2021/03/30 11:42:14;;;;;;;29.35;16.55;;;24.20;30.00;;;;;;5072925;28;20436;-69
2021/03/30 11:44:40;;;;;;;30.23;16.92;;;23.90;31.90;;;;;;5081849;28;20016;-69
2021/03/30 11:47:05;;;;;;;31.98;18.17;;;23.90;32.30;;;;;;5075322;28;20394;-69
2021/03/30 11:49:33;;;;;;;29.15;16.38;;;23.60;30.70;;;;;;5074276;28;20103;-68
2021/03/30 11:51:59;;;;;;;28.55;15.23;;;23.50;31.20;;;;;;5072071;28;20017;-69
2021/03/30 11:54:25;;;;;;;29.90;17.13;;;23.90;30.80;;;;;;5073728;28;20499;-69
2021/03/30 11:56:51;;;;;;;27.35;15.32;;;23.70;30.20;;;;;;5073459;28;20025;-68
2021/03/30 11:59:16;;;;;;;21.58;13.02;;;24.10;29.80;;;;;;5076391;28;20021;-69
2021/03/30 12:01:42;;;;;;;22.92;12.65;;;23.90;28.80;;;;;;5073578;28;20035;-69
2021/03/30 12:04:08;;;;;;;25.73;13.27;;;24.20;29.80;;;;;;5077269;28;20091;-68
2021/03/30 12:06:34;;;;;;;29.52;14.68;;;23.90;27.60;;;;;;5071740;28;20047;-69
2021/03/30 12:09:01;;;;;;;26.55;14.90;;;23.80;28.50;;;;;;5084441;28;20099;-69
2021/03/30 12:11:28;;;;;;;27.13;15.50;;;23.50;29.90;;;;;;5072767;28;20401;-69
2021/03/30 12:13:55;;;;;;;26.58;15.13;;;23.60;30.30;;;;;;5072193;28;20098;-68
2021/03/30 12:16:20;;;;;;;27.35;15.68;;;23.60;30.70;;;;;;5072593;28;20099;-68
2021/03/30 12:18:46;;;;;;;27.38;16.20;;;23.20;30.80;;;;;;5063416;28;20032;-68
2021/03/30 12:21:12;;;;;;;28.80;15.13;;;23.50;30.20;;;;;;5071097;28;20040;-68
2021/03/30 12:23:37;;;;;;;31.50;15.40;;;23.60;29.90;;;;;;5071765;28;20029;-68
2021/03/30 12:26:03;;;;;;;24.52;14.73;;;23.70;29.70;;;;;;5066454;28;20039;-68
2021/03/30 12:28:28;;;;;;;25.85;14.38;;;23.90;29.10;;;;;;5070373;28;20028;-68
2021/03/30 12:30:54;;;;;;;28.38;15.25;;;24.20;28.70;;;;;;5073186;28;20142;-68
2021/03/30 12:33:19;;;;;;;26.88;14.73;;;24.10;27.50;;;;;;5071794;28;20035;-68
2021/03/30 12:35:45;;;;;;;25.98;14.02;;;23.90;28.30;;;;;;5072934;28;20111;-69
2021/03/30 12:38:11;;;;;;;24.35;13.38;;;24.10;29.50;;;;;;5066000;28;20066;-68
2021/03/30 12:40:37;;;;;;;26.00;14.45;;;24.10;27.60;;;;;;5062865;28;20052;-68
2021/03/30 12:43:04;;;;;;;23.13;13.88;;;23.60;29.40;;;;;;5064442;28;20016;-68
2021/03/30 12:45:30;;;;;;;24.23;14.43;;;23.80;28.60;;;;;;5069302;28;20051;-67
2021/03/30 12:47:56;;;;;;;29.15;14.55;;;24.00;27.90;;;;;;5073665;28;20025;-68
2021/03/30 12:50:25;;;;;;;25.80;14.43;;;23.60;28.10;;;;;;5068442;28;20034;-68
2021/03/30 12:52:51;;;;;;;27.65;14.88;;;23.80;29.30;;;;;;5061620;28;20028;-69
2021/03/30 12:55:16;;;;;;;23.50;14.40;;;23.80;28.70;;;;;;5072766;28;20393;-69
2021/03/30 12:57:42;;;;;;;24.25;14.07;;;24.00;28.60;;;;;;5068746;28;20032;-69
2021/03/30 13:00:08;;;;;;;26.75;14.07;;;24.00;28.60;;;;;;5072245;28;20029;-69
2021/03/30 13:02:34;;;;;;;25.92;14.73;;;24.10;29.30;;;;;;5072138;28;20103;-69
2021/03/30 13:05:00;;;;;;;30.85;15.38;;;23.90;28.70;;;;;;5072516;28;20154;-68
2021/03/30 13:07:25;;;;;;;26.98;15.70;;;23.90;28.80;;;;;;5066223;28;20092;-69
2021/03/30 13:09:51;;;;;;;26.08;14.48;;;23.70;28.40;;;;;;5068634;28;20024;-69
2021/03/30 13:12:17;;;;;;;28.15;14.20;;;23.40;27.80;;;;;;5067613;28;20035;-68
2021/03/30 13:14:43;;;;;;;24.50;14.07;;;23.40;29.30;;;;;;5070012;28;20018;-68